Time;durP1;ratioP1;P1;durP2;ratioP2;P2;SDS_P1;SDS_P2;PMS_P1;PMS_P2;Temp;Humidity;BMP_temperature;BMP_pressure;BME280_temperature;BME280_humidity;BME280_pressure;Samples;Min_cycle;Max_cycle;Signal;HPM_P1;HPM_P2
2021/08/02 00:01:40;;;;;;;13.23;8.70;;;23.40;81.80;;;;;;5053614;28;20017;-73
2021/08/02 00:04:11;;;;;;;14.80;9.27;;;23.30;82.30;;;;;;5052328;28;20106;-72
2021/08/02 00:06:49;;;;;;;15.30;9.07;;;23.20;82.60;;;;;;5053785;28;20021;-72
2021/08/02 00:09:17;;;;;;;12.98;9.32;;;23.20;82.90;;;;;;5053035;28;20099;-73
2021/08/02 00:12:00;;;;;;;15.80;9.95;;;23.20;83.20;;;;;;5053369;28;20467;-73
2021/08/02 00:14:26;;;;;;;11.07;9.07;;;23.20;83.20;;;;;;5053000;28;20347;-73
2021/08/02 00:16:53;;;;;;;13.88;9.10;;;23.20;83.40;;;;;;5053201;28;20029;-73
2021/08/02 00:19:20;;;;;;;15.38;8.95;;;23.20;83.70;;;;;;5054611;28;20048;-73
2021/08/02 00:21:47;;;;;;;13.85;9.73;;;23.20;84.00;;;;;;5056662;28;20435;-73
2021/08/02 00:24:14;;;;;;;15.20;10.40;;;23.20;84.30;;;;;;5056203;28;20027;-73
2021/08/02 00:26:40;;;;;;;15.18;9.85;;;23.10;84.40;;;;;;5057487;28;20025;-73
2021/08/02 00:29:07;;;;;;;16.42;9.93;;;23.10;84.50;;;;;;5056435;28;20044;-73
2021/08/02 00:31:34;;;;;;;11.80;9.68;;;23.10;84.70;;;;;;5057375;28;20063;-73
2021/08/02 00:34:00;;;;;;;13.63;9.70;;;23.10;84.80;;;;;;5055938;28;20470;-73
2021/08/02 00:36:39;;;;;;;14.30;9.88;;;23.10;84.90;;;;;;5057693;28;20021;-73
2021/08/02 00:39:06;;;;;;;14.82;9.93;;;23.10;85.10;;;;;;5056466;28;20087;-73
2021/08/02 00:41:59;;;;;;;41.85;22.45;;;23.10;85.30;;;;;;5056086;28;20363;-73
2021/08/02 00:44:58;;;;;;;26.73;15.45;;;23.00;85.40;;;;;;5056860;28;20048;-73
2021/08/02 00:47:28;;;;;;;28.92;17.25;;;23.00;85.80;;;;;;5056069;28;20024;-73
2021/08/02 00:49:57;;;;;;;31.20;17.88;;;23.00;86.00;;;;;;5056912;28;20104;-73
2021/08/02 00:52:26;;;;;;;26.95;15.88;;;23.00;86.20;;;;;;5056791;28;20459;-74
2021/08/02 00:54:56;;;;;;;16.63;11.25;;;23.00;86.50;;;;;;5056609;28;20025;-73
2021/08/02 00:57:22;;;;;;;28.33;16.70;;;23.00;86.60;;;;;;5057030;28;20033;-73
2021/08/02 00:59:50;;;;;;;19.27;12.82;;;23.00;86.80;;;;;;5055575;28;20120;-72
2021/08/02 01:02:18;;;;;;;23.00;14.35;;;23.00;87.00;;;;;;5056857;28;20021;-72
2021/08/02 01:04:46;;;;;;;30.77;15.15;;;23.00;87.10;;;;;;5056789;28;20045;-72
2021/08/02 01:07:12;;;;;;;21.13;14.10;;;23.00;87.10;;;;;;5055668;28;20376;-73
2021/08/02 01:09:42;;;;;;;63.08;29.65;;;23.00;87.20;;;;;;5056947;28;20025;-72
2021/08/02 01:12:10;;;;;;;64.30;31.67;;;23.00;87.40;;;;;;5063517;28;20024;-73
2021/08/02 01:14:38;;;;;;;52.47;24.88;;;23.00;87.30;;;;;;5058475;28;20021;-73
2021/08/02 01:17:06;;;;;;;36.55;20.63;;;23.00;87.60;;;;;;5056734;28;20032;-73
2021/08/02 01:19:32;;;;;;;25.80;16.40;;;23.00;87.70;;;;;;5055169;28;20024;-73
2021/08/02 01:22:00;;;;;;;20.98;14.38;;;23.00;87.90;;;;;;5056013;28;20113;-73
2021/08/02 01:24:26;;;;;;;19.55;13.20;;;23.00;87.90;;;;;;5056193;28;20358;-73
2021/08/02 01:26:58;;;;;;;37.35;22.38;;;23.00;88.00;;;;;;5056342;28;20032;-73
2021/08/02 01:30:01;;;;;;;17.08;11.63;;;23.00;88.00;;;;;;5056169;28;20048;-73
2021/08/02 01:32:27;;;;;;;17.25;12.05;;;22.90;88.10;;;;;;5055955;28;20111;-73
2021/08/02 01:34:53;;;;;;;59.38;29.60;;;22.90;89.00;;;;;;5056128;28;20021;-73
2021/08/02 01:37:19;;;;;;;44.78;25.38;;;22.80;88.60;;;;;;5054803;28;20524;-73
2021/08/02 01:39:53;;;;;;;24.52;15.52;;;22.80;88.90;;;;;;5054859;28;20021;-73
2021/08/02 01:42:19;;;;;;;24.98;14.02;;;22.80;89.20;;;;;;5056143;28;20142;-73
2021/08/02 01:44:44;;;;;;;23.88;13.90;;;22.80;89.50;;;;;;5055952;28;20117;-73
2021/08/02 01:47:29;;;;;;;19.98;13.25;;;22.70;89.70;;;;;;5054669;28;20118;-73
2021/08/02 01:50:08;;;;;;;16.85;12.02;;;22.70;90.00;;;;;;5054618;28;20104;-73
2021/08/02 01:53:09;;;;;;;18.42;12.50;;;22.60;90.10;;;;;;5054562;28;20486;-74
2021/08/02 01:55:35;;;;;;;22.02;12.73;;;22.60;90.20;;;;;;5055008;28;20509;-74
2021/08/02 01:58:09;;;;;;;16.48;12.27;;;22.60;90.40;;;;;;5054243;28;20025;-73
2021/08/02 02:00:42;;;;;;;16.70;12.43;;;22.50;90.70;;;;;;5054435;28;20021;-73
2021/08/02 02:03:12;;;;;;;20.90;13.48;;;22.40;90.90;;;;;;5054475;28;20029;-74
2021/08/02 02:05:41;;;;;;;19.23;12.30;;;22.30;91.30;;;;;;5054004;28;20107;-73
2021/08/02 02:08:15;;;;;;;18.10;12.68;;;22.40;91.60;;;;;;5054481;28;20031;-74
2021/08/02 02:10:46;;;;;;;20.25;12.32;;;22.40;91.70;;;;;;5053976;28;20029;-74
2021/08/02 02:13:19;;;;;;;21.20;14.30;;;22.40;91.80;;;;;;5055771;28;20025;-74
2021/08/02 02:15:50;;;;;;;18.65;12.90;;;22.40;91.90;;;;;;5054364;28;20127;-74
2021/08/02 02:18:18;;;;;;;17.95;13.13;;;22.30;92.30;;;;;;5055197;28;20086;-74
2021/08/02 02:20:46;;;;;;;19.50;13.40;;;22.40;92.20;;;;;;5057376;28;20490;-74
2021/08/02 02:23:13;;;;;;;21.20;13.32;;;22.40;92.10;;;;;;5053804;28;20417;-74
2021/08/02 02:25:43;;;;;;;21.15;13.60;;;22.40;92.10;;;;;;5055215;28;20088;-74
2021/08/02 02:28:12;;;;;;;17.67;12.65;;;22.40;92.10;;;;;;5055222;28;20104;-74
2021/08/02 02:30:42;;;;;;;18.90;13.18;;;22.40;92.20;;;;;;5060830;28;20021;-73
2021/08/02 02:33:12;;;;;;;18.13;12.90;;;22.40;92.10;;;;;;5057047;28;20437;-74
2021/08/02 02:35:40;;;;;;;19.77;13.07;;;22.50;92.20;;;;;;5055895;28;20029;-74
2021/08/02 02:38:09;;;;;;;19.17;13.15;;;22.40;92.10;;;;;;5053653;28;20032;-74
2021/08/02 02:40:36;;;;;;;18.50;13.68;;;22.50;92.10;;;;;;5055126;28;20135;-74
2021/08/02 02:43:04;;;;;;;18.75;13.57;;;22.60;92.00;;;;;;5054143;28;20021;-74
2021/08/02 02:45:30;;;;;;;19.30;13.25;;;22.60;91.90;;;;;;5053491;28;20112;-73
2021/08/02 02:47:57;;;;;;;18.48;13.32;;;22.70;91.80;;;;;;5055215;28;20112;-74
2021/08/02 02:50:24;;;;;;;20.83;13.18;;;22.70;91.70;;;;;;5054908;28;20036;-74
2021/08/02 02:52:51;;;;;;;19.50;13.30;;;22.70;91.60;;;;;;5054644;28;20029;-74
2021/08/02 02:55:17;;;;;;;19.75;14.18;;;22.70;91.50;;;;;;5053142;28;20067;-74
2021/08/02 02:57:43;;;;;;;19.30;13.63;;;22.70;91.40;;;;;;5053152;28;20479;-74
2021/08/02 03:00:09;;;;;;;19.50;13.82;;;22.70;91.30;;;;;;5054520;28;20017;-74
2021/08/02 03:02:37;;;;;;;26.25;12.80;;;22.80;91.50;;;;;;5053076;28;20064;-74
2021/08/02 03:05:05;;;;;;;21.02;14.00;;;22.90;91.50;;;;;;5052843;28;20364;-74
2021/08/02 03:07:33;;;;;;;18.90;12.95;;;23.00;91.40;;;;;;5053000;28;20029;-74
2021/08/02 03:09:59;;;;;;;20.38;13.00;;;23.20;90.90;;;;;;5054195;28;20028;-74
2021/08/02 03:12:25;;;;;;;15.50;11.73;;;23.20;90.40;;;;;;5052637;28;20028;-74
2021/08/02 03:14:51;;;;;;;21.13;13.68;;;23.10;90.10;;;;;;5053840;28;20371;-74
2021/08/02 03:17:17;;;;;;;17.55;13.00;;;23.10;90.00;;;;;;5052774;28;20375;-74
2021/08/02 03:19:42;;;;;;;17.42;12.77;;;23.00;90.00;;;;;;5054058;28;20072;-73
2021/08/02 03:22:24;;;;;;;18.98;12.95;;;23.00;90.10;;;;;;5054079;28;20025;-74
2021/08/02 03:25:01;;;;;;;20.23;13.45;;;22.80;90.30;;;;;;5046976;28;20022;-74
2021/08/02 03:27:29;;;;;;;19.00;13.50;;;22.80;90.60;;;;;;5031653;28;20029;-74
2021/08/02 03:29:59;;;;;;;19.35;13.52;;;22.80;90.90;;;;;;5032004;28;20026;-74
2021/08/02 03:32:26;;;;;;;17.98;12.98;;;22.70;91.10;;;;;;5032480;28;20475;-74
2021/08/02 03:34:56;;;;;;;17.25;12.48;;;22.70;91.30;;;;;;5032480;28;20394;-74
2021/08/02 03:37:24;;;;;;;20.45;13.48;;;22.80;91.40;;;;;;5032405;28;20406;-74
2021/08/02 03:39:51;;;;;;;21.27;13.43;;;22.90;91.60;;;;;;5032723;28;20017;-74
2021/08/02 03:42:18;;;;;;;21.73;12.90;;;23.20;91.60;;;;;;5032781;28;20048;-74
2021/08/02 03:44:45;;;;;;;17.67;12.25;;;23.50;91.30;;;;;;5032504;28;20075;-75
2021/08/02 03:47:11;;;;;;;21.35;12.82;;;23.70;91.00;;;;;;5032459;28;20061;-75
2021/08/02 03:49:37;;;;;;;20.77;12.85;;;24.10;90.40;;;;;;5032500;28;20056;-74
2021/08/02 03:52:04;;;;;;;19.33;12.57;;;24.30;89.50;;;;;;5033745;28;20026;-72
2021/08/02 03:54:31;;;;;;;19.23;12.85;;;24.70;88.10;;;;;;5033153;28;20079;-75
2021/08/02 03:56:59;;;;;;;17.67;12.85;;;25.00;86.40;;;;;;5032450;28;20025;-75
2021/08/02 03:59:25;;;;;;;15.02;12.05;;;25.30;85.00;;;;;;5034976;28;20220;-75
2021/08/02 04:01:51;;;;;;;18.60;12.30;;;25.60;84.30;;;;;;5040623;28;20528;-76
2021/08/02 04:04:18;;;;;;;19.92;11.93;;;25.90;83.20;;;;;;5031074;28;20041;-73
2021/08/02 04:06:44;;;;;;;24.38;11.32;;;26.20;81.60;;;;;;5032233;28;20052;-74
2021/08/02 04:09:11;;;;;;;18.02;11.52;;;26.50;80.30;;;;;;5025132;28;20029;-72
2021/08/02 04:11:39;;;;;;;14.60;11.98;;;26.60;79.10;;;;;;5016533;28;20030;-69
2021/08/02 04:14:05;;;;;;;16.95;11.38;;;26.80;78.70;;;;;;5030459;28;20021;-69
2021/08/02 04:16:31;;;;;;;18.70;11.10;;;27.10;78.20;;;;;;5018647;28;20045;-71
2021/08/02 04:18:57;;;;;;;17.15;10.45;;;27.30;76.70;;;;;;5024621;28;20030;-71
2021/08/02 04:21:23;;;;;;;15.75;10.63;;;27.60;76.20;;;;;;5049564;28;20043;-76
2021/08/02 04:23:49;;;;;;;14.00;11.02;;;27.90;75.40;;;;;;5020242;28;20087;-75
2021/08/02 04:26:14;;;;;;;15.27;10.50;;;28.10;74.90;;;;;;5065318;28;20030;-76
2021/08/02 04:28:42;;;;;;;13.23;9.90;;;28.30;74.00;;;;;;5065311;28;20060;-76
2021/08/02 04:31:08;;;;;;;18.40;10.95;;;28.50;73.20;;;;;;5024001;28;20037;-76
2021/08/02 04:33:34;;;;;;;16.45;10.30;;;28.70;72.60;;;;;;5032253;28;20479;-75
2021/08/02 04:36:00;;;;;;;15.90;9.65;;;28.80;72.30;;;;;;5032717;28;20444;-76
2021/08/02 04:38:25;;;;;;;14.20;9.63;;;29.00;72.20;;;;;;5020625;28;20034;-77
2021/08/02 04:40:51;;;;;;;13.15;9.57;;;29.00;71.80;;;;;;5023814;28;20032;-77
2021/08/02 04:43:17;;;;;;;12.70;9.95;;;29.10;71.80;;;;;;5014719;28;20026;-77
2021/08/02 04:45:42;;;;;;;16.27;9.82;;;29.30;71.40;;;;;;5013082;28;20025;-78
2021/08/02 04:48:08;;;;;;;13.65;10.02;;;29.40;71.00;;;;;;5034058;28;20033;-74
2021/08/02 04:50:34;;;;;;;11.80;9.25;;;29.50;70.50;;;;;;5030351;28;20030;-73
2021/08/02 04:52:59;;;;;;;13.10;9.38;;;29.70;70.30;;;;;;5023014;28;20025;-75
2021/08/02 04:55:25;;;;;;;12.43;9.35;;;29.80;69.80;;;;;;5025863;28;20084;-70
2021/08/02 04:57:51;;;;;;;12.43;9.27;;;30.00;70.00;;;;;;5015292;28;20041;-71
2021/08/02 05:00:17;;;;;;;13.85;9.60;;;30.20;69.70;;;;;;5026942;28;20029;-71
2021/08/02 05:02:42;;;;;;;13.00;9.43;;;30.60;69.10;;;;;;5038462;28;20355;-71
2021/08/02 05:05:09;;;;;;;12.00;9.00;;;30.90;68.00;;;;;;5048881;28;20075;-71
2021/08/02 05:07:34;;;;;;;15.27;10.48;;;31.10;67.10;;;;;;5041062;28;20067;-70
2021/08/02 05:10:01;;;;;;;13.35;9.45;;;31.10;66.80;;;;;;5045387;28;20029;-71
2021/08/02 05:12:26;;;;;;;18.30;9.27;;;31.20;66.70;;;;;;5047981;28;20389;-70
2021/08/02 05:14:52;;;;;;;11.05;8.65;;;31.30;66.80;;;;;;5038196;28;20020;-71
2021/08/02 05:17:17;;;;;;;14.63;9.13;;;31.40;66.00;;;;;;5037099;28;20044;-71
2021/08/02 05:19:43;;;;;;;11.90;9.55;;;31.40;66.10;;;;;;5037502;28;20021;-71
2021/08/02 05:22:09;;;;;;;14.25;9.90;;;31.60;66.20;;;;;;5038780;28;20109;-72
2021/08/02 05:24:35;;;;;;;14.90;9.52;;;31.60;66.40;;;;;;5032788;28;20025;-74
2021/08/02 05:27:01;;;;;;;17.58;9.98;;;31.90;66.60;;;;;;5035779;28;20029;-80
2021/08/02 05:29:27;;;;;;;17.13;11.38;;;32.40;66.00;;;;;;5057154;28;20030;-73
2021/08/02 05:31:53;;;;;;;49.35;16.45;;;32.80;64.60;;;;;;5029205;28;20030;-69
2021/08/02 05:34:18;;;;;;;53.05;18.98;;;33.20;63.80;;;;;;5034151;28;20159;-69
2021/08/02 05:36:44;;;;;;;27.70;13.73;;;33.40;63.30;;;;;;5035001;28;20027;-69
2021/08/02 05:39:10;;;;;;;14.32;10.00;;;33.70;63.20;;;;;;5034950;28;20037;-70
2021/08/02 05:41:36;;;;;;;11.85;9.77;;;33.90;62.00;;;;;;5033564;28;20033;-69
2021/08/02 05:44:02;;;;;;;11.57;8.10;;;34.10;62.00;;;;;;5033639;28;20028;-69
2021/08/02 05:46:28;;;;;;;13.57;8.13;;;34.30;61.10;;;;;;5035494;28;20037;-71
2021/08/02 05:48:54;;;;;;;14.40;7.93;;;34.20;60.20;;;;;;5033956;28;20021;-70
2021/08/02 05:51:20;;;;;;;11.02;7.82;;;34.00;60.50;;;;;;5036537;28;20076;-74
2021/08/02 05:53:46;;;;;;;15.43;8.20;;;33.90;60.80;;;;;;5044584;28;20029;-74
2021/08/02 05:56:11;;;;;;;9.95;7.53;;;33.40;61.00;;;;;;5031989;28;20474;-75
2021/08/02 05:58:38;;;;;;;13.00;8.20;;;33.20;62.10;;;;;;5033006;28;20029;-75
2021/08/02 06:01:04;;;;;;;12.57;7.32;;;33.00;62.70;;;;;;5031957;28;20026;-75
2021/08/02 06:03:30;;;;;;;15.38;7.88;;;33.00;63.00;;;;;;5033225;28;20144;-75
2021/08/02 06:05:55;;;;;;;29.40;11.02;;;33.30;63.10;;;;;;5033493;28;20076;-75
2021/08/02 06:08:21;;;;;;;13.13;8.32;;;33.90;62.60;;;;;;5033496;28;20032;-75
2021/08/02 06:10:47;;;;;;;13.02;8.23;;;34.30;61.50;;;;;;5033580;28;20017;-76
2021/08/02 06:13:13;;;;;;;28.40;9.35;;;34.60;61.00;;;;;;5033609;28;20021;-75
2021/08/02 06:15:39;;;;;;;12.27;7.70;;;35.10;60.50;;;;;;5035028;28;20474;-76
2021/08/02 06:18:04;;;;;;;10.93;7.68;;;35.50;59.30;;;;;;5034417;28;20030;-77
2021/08/02 06:20:30;;;;;;;10.57;7.07;;;35.70;58.20;;;;;;5035340;28;20017;-77
2021/08/02 06:22:56;;;;;;;10.50;7.35;;;35.60;57.60;;;;;;5033907;28;20021;-75
2021/08/02 06:25:21;;;;;;;11.65;7.20;;;35.50;57.70;;;;;;5033012;28;20156;-77
2021/08/02 06:27:47;;;;;;;9.68;7.10;;;35.10;58.00;;;;;;5033392;28;20033;-78
2021/08/02 06:30:13;;;;;;;11.88;7.18;;;34.70;58.30;;;;;;5033491;28;20029;-76
2021/08/02 06:32:39;;;;;;;11.05;7.75;;;34.20;59.10;;;;;;5033544;28;20036;-78
2021/08/02 06:35:05;;;;;;;12.77;7.50;;;34.20;60.20;;;;;;5033689;28;20017;-78
2021/08/02 06:37:30;;;;;;;12.63;7.22;;;34.40;60.10;;;;;;5033555;28;20121;-78
2021/08/02 06:39:56;;;;;;;11.40;7.22;;;34.70;60.10;;;;;;5033876;28;20103;-79
2021/08/02 06:42:22;;;;;;;11.43;7.13;;;35.30;59.70;;;;;;5035095;28;20029;-79
2021/08/02 06:44:48;;;;;;;9.60;6.55;;;35.80;59.20;;;;;;5036290;28;20025;-79
2021/08/02 06:47:14;;;;;;;11.18;6.72;;;36.30;57.40;;;;;;5037668;28;20052;-79
2021/08/02 06:49:39;;;;;;;8.15;6.25;;;36.40;56.00;;;;;;5037251;28;20026;-79
2021/08/02 06:52:05;;;;;;;10.65;7.15;;;36.20;55.00;;;;;;5035415;28;20022;-78
2021/08/02 06:54:31;;;;;;;12.93;7.82;;;35.60;55.20;;;;;;5034144;28;20478;-77
2021/08/02 06:56:56;;;;;;;10.88;7.70;;;34.80;56.70;;;;;;5033389;28;20437;-78
2021/08/02 06:59:22;;;;;;;13.57;8.57;;;34.10;58.30;;;;;;5034862;28;20029;-76
2021/08/02 07:01:48;;;;;;;11.32;8.25;;;33.50;59.70;;;;;;5033168;28;20367;-76
2021/08/02 07:04:14;;;;;;;14.13;8.70;;;33.00;61.00;;;;;;5033198;28;20057;-77
2021/08/02 07:06:44;;;;;;;12.20;8.15;;;32.60;62.30;;;;;;5033308;28;20029;-77
2021/08/02 07:09:10;;;;;;;12.52;8.80;;;32.30;63.10;;;;;;5034361;28;20029;-77
2021/08/02 07:11:36;;;;;;;12.73;8.52;;;32.10;63.90;;;;;;5033907;28;20029;-77
2021/08/02 07:14:02;;;;;;;13.15;9.07;;;32.30;64.50;;;;;;5034446;28;20351;-77
2021/08/02 07:16:28;;;;;;;14.70;8.77;;;32.70;64.60;;;;;;5034089;28;20025;-78
2021/08/02 07:18:54;;;;;;;11.00;8.20;;;33.20;63.20;;;;;;5034239;28;20026;-77
2021/08/02 07:21:21;;;;;;;14.43;8.88;;;33.60;62.50;;;;;;5032564;28;20053;-75
2021/08/02 07:23:47;;;;;;;10.95;8.77;;;33.80;61.80;;;;;;5034045;28;20144;-76
2021/08/02 07:26:14;;;;;;;12.32;7.80;;;34.10;60.70;;;;;;5033835;28;20033;-76
2021/08/02 07:28:40;;;;;;;17.38;9.50;;;34.30;60.60;;;;;;5033735;28;20132;-77
2021/08/02 07:31:06;;;;;;;10.70;8.40;;;34.50;60.30;;;;;;5034386;28;20052;-77
2021/08/02 07:33:31;;;;;;;13.65;8.02;;;34.60;59.90;;;;;;5033056;28;20017;-77
2021/08/02 07:35:59;;;;;;;13.23;8.63;;;34.60;59.20;;;;;;5032882;28;20084;-76
2021/08/02 07:38:25;;;;;;;17.45;8.20;;;34.70;59.50;;;;;;5032660;28;20033;-76
2021/08/02 07:40:51;;;;;;;11.93;7.95;;;34.80;59.30;;;;;;5032380;28;20525;-76
2021/08/02 07:43:17;;;;;;;13.80;8.13;;;35.10;58.60;;;;;;5033555;28;20108;-75
2021/08/02 07:45:43;;;;;;;11.73;7.45;;;35.30;59.10;;;;;;5032938;28;20017;-77
2021/08/02 07:48:08;;;;;;;8.10;7.20;;;35.70;57.80;;;;;;5032739;28;20036;-76
2021/08/02 07:50:34;;;;;;;11.00;7.60;;;36.00;56.10;;;;;;5032455;28;20031;-76
2021/08/02 07:52:59;;;;;;;13.65;7.00;;;36.20;55.60;;;;;;5033550;28;20105;-76
2021/08/02 07:55:25;;;;;;;13.50;7.65;;;36.20;54.70;;;;;;5033697;28;20359;-77
2021/08/02 07:57:51;;;;;;;10.98;6.97;;;36.20;54.30;;;;;;5031898;28;20036;-76
2021/08/02 08:00:17;;;;;;;8.70;6.75;;;36.30;53.90;;;;;;5033382;28;20367;-76
2021/08/02 08:02:46;;;;;;;10.27;6.70;;;36.30;53.70;;;;;;5033214;28;20093;-77
2021/08/02 08:05:13;;;;;;;8.60;6.57;;;36.50;53.60;;;;;;5033212;28;20047;-77
2021/08/02 08:07:48;;;;;;;9.60;7.05;;;36.80;53.30;;;;;;5032233;28;20022;-78
2021/08/02 08:10:16;;;;;;;11.02;7.03;;;36.90;52.60;;;;;;5033643;28;20075;-76
2021/08/02 08:12:42;;;;;;;12.68;7.00;;;36.90;52.60;;;;;;5033275;28;20028;-76
2021/08/02 08:15:09;;;;;;;9.30;6.55;;;37.00;51.90;;;;;;5034716;28;20100;-77
2021/08/02 08:17:36;;;;;;;9.25;7.25;;;36.90;51.90;;;;;;5035745;28;20113;-76
2021/08/02 08:20:03;;;;;;;9.65;7.35;;;36.90;51.20;;;;;;5033547;28;20057;-76
2021/08/02 08:22:29;;;;;;;13.98;8.00;;;36.50;52.30;;;;;;5033790;28;20048;-76
2021/08/02 08:24:55;;;;;;;11.32;7.53;;;36.30;53.10;;;;;;5033503;28;20022;-75
2021/08/02 08:27:21;;;;;;;12.18;8.50;;;36.00;53.60;;;;;;5033570;28;20474;-76
2021/08/02 08:29:46;;;;;;;13.10;7.90;;;35.60;54.40;;;;;;5033600;28;20083;-76
2021/08/02 08:32:12;;;;;;;11.70;7.65;;;35.30;54.90;;;;;;5033250;28;20481;-76
2021/08/02 08:34:38;;;;;;;11.77;7.38;;;35.10;54.70;;;;;;5031936;28;20047;-76
2021/08/02 08:37:04;;;;;;;11.95;7.40;;;34.80;54.70;;;;;;5032188;28;20021;-75
2021/08/02 08:39:30;;;;;;;12.98;7.40;;;34.30;55.00;;;;;;5031980;28;20029;-77
2021/08/02 08:41:58;;;;;;;11.63;7.57;;;34.00;55.90;;;;;;5037236;28;20017;-77
2021/08/02 08:44:26;;;;;;;13.10;7.15;;;33.70;56.30;;;;;;5035923;28;20021;-77
2021/08/02 08:46:52;;;;;;;11.45;7.35;;;33.50;56.80;;;;;;5035705;28;20447;-77
2021/08/02 08:49:18;;;;;;;10.68;7.32;;;33.50;57.30;;;;;;5035463;28;20033;-77
2021/08/02 08:51:44;;;;;;;15.40;7.40;;;33.50;57.60;;;;;;5035628;28;20091;-77
2021/08/02 08:54:10;;;;;;;12.98;7.35;;;33.60;57.90;;;;;;5036991;28;20459;-79
2021/08/02 08:56:36;;;;;;;10.43;6.75;;;34.10;57.40;;;;;;5036882;28;20021;-79
2021/08/02 08:59:02;;;;;;;11.23;6.70;;;34.80;55.90;;;;;;5035393;28;20029;-80
2021/08/02 09:01:29;;;;;;;11.52;6.88;;;35.50;54.90;;;;;;5035640;28;20055;-80
2021/08/02 09:03:57;;;;;;;12.38;7.28;;;36.20;54.30;;;;;;5036759;28;20518;-80
2021/08/02 09:06:23;;;;;;;9.80;6.43;;;36.40;52.90;;;;;;5035279;28;20029;-80
2021/08/02 09:08:48;;;;;;;14.88;7.43;;;36.40;51.80;;;;;;5035434;28;20079;-78
2021/08/02 09:11:22;;;;;;;11.23;7.85;;;36.10;52.00;;;;;;5035253;28;20028;-79
2021/08/02 09:13:48;;;;;;;12.02;6.90;;;35.60;52.70;;;;;;5035278;28;20022;-79
2021/08/02 09:16:27;;;;;;;9.50;7.45;;;35.40;53.30;;;;;;5036452;28;20029;-79
2021/08/02 09:19:04;;;;;;;11.50;7.50;;;35.00;54.30;;;;;;5035194;28;20029;-79
2021/08/02 09:21:48;;;;;;;11.10;7.40;;;34.70;54.60;;;;;;5036670;28;20029;-81
2021/08/02 09:24:14;;;;;;;11.45;7.18;;;34.60;55.40;;;;;;5035518;28;20056;-78
2021/08/02 09:26:41;;;;;;;14.63;7.65;;;34.90;54.80;;;;;;5035128;28;20049;-77
2021/08/02 09:29:09;;;;;;;11.05;7.05;;;35.30;54.40;;;;;;5035085;28;20033;-78
2021/08/02 09:31:40;;;;;;;15.30;8.20;;;35.60;52.20;;;;;;5036920;28;20021;-77
2021/08/02 09:34:07;;;;;;;12.45;6.97;;;35.40;52.30;;;;;;5036158;28;20509;-78
2021/08/02 09:36:46;;;;;;;13.02;7.25;;;34.90;52.10;;;;;;5038385;28;20021;-76
2021/08/02 09:39:16;;;;;;;12.43;7.05;;;34.50;52.90;;;;;;5045019;28;20475;-76
2021/08/02 09:41:43;;;;;;;12.40;8.48;;;34.20;53.30;;;;;;5052746;28;20075;-75
2021/08/02 09:44:22;;;;;;;13.80;8.05;;;34.00;54.30;;;;;;5049031;28;20018;-78
2021/08/02 09:46:55;;;;;;;16.25;9.13;;;33.90;54.70;;;;;;5045513;28;20025;-77
2021/08/02 09:49:21;;;;;;;13.65;9.40;;;33.80;55.40;;;;;;5034879;28;20032;-78
2021/08/02 09:51:47;;;;;;;11.82;8.85;;;33.80;55.80;;;;;;5035110;28;20029;-78
2021/08/02 09:54:42;;;;;;;12.63;8.80;;;33.90;56.00;;;;;;5034850;28;20392;-78
2021/08/02 09:57:07;;;;;;;;;;;34.40;56.20;;;;;;5031830;28;20033;-78
2021/08/02 09:59:39;;;;;;;14.27;8.98;;;35.10;55.70;;;;;;5035992;28;19901;-79
2021/08/02 10:02:06;;;;;;;13.35;7.13;;;35.60;54.40;;;;;;5034598;28;20026;-81
2021/08/02 10:04:32;;;;;;;11.52;8.80;;;35.70;53.50;;;;;;5034315;28;20383;-80
2021/08/02 10:06:59;;;;;;;15.13;9.73;;;35.60;54.00;;;;;;5035322;28;20028;-79
2021/08/02 10:09:28;;;;;;;12.57;8.18;;;35.30;54.20;;;;;;5034269;28;20029;-79
2021/08/02 10:11:58;;;;;;;12.10;9.52;;;35.00;54.20;;;;;;5034180;28;20321;-78
2021/08/02 10:14:29;;;;;;;14.20;9.13;;;34.60;55.20;;;;;;5034512;28;20047;-78
2021/08/02 10:16:57;;;;;;;14.85;8.73;;;34.20;55.30;;;;;;5034035;28;20036;-78
2021/08/02 10:19:38;;;;;;;14.60;8.57;;;34.00;55.00;;;;;;5033763;28;20029;-78
2021/08/02 10:22:06;;;;;;;14.85;9.77;;;33.80;55.60;;;;;;5034535;28;20071;-80
2021/08/02 10:24:32;;;;;;;16.85;10.27;;;33.60;55.60;;;;;;5035207;28;20055;-79
2021/08/02 10:27:01;;;;;;;17.38;10.02;;;33.40;56.00;;;;;;5034101;28;20344;-79
2021/08/02 10:29:38;;;;;;;12.82;9.25;;;33.30;56.40;;;;;;5033753;28;20028;-79
2021/08/02 10:32:04;;;;;;;13.93;8.38;;;33.30;56.90;;;;;;5033601;28;20336;-80
2021/08/02 10:34:30;;;;;;;13.18;9.38;;;33.40;56.70;;;;;;5033775;28;20024;-80
2021/08/02 10:37:01;;;;;;;12.70;7.25;;;33.50;56.70;;;;;;5035157;28;20024;-80
2021/08/02 10:39:29;;;;;;;17.13;10.27;;;33.30;56.50;;;;;;5035271;28;20471;-80
2021/08/02 10:42:05;;;;;;;14.60;10.85;;;33.30;57.20;;;;;;5033582;28;20021;-80
2021/08/02 10:44:31;;;;;;;16.45;9.93;;;33.10;57.20;;;;;;5033726;28;20029;-79
2021/08/02 10:47:02;;;;;;;15.60;10.07;;;33.00;57.20;;;;;;5034361;28;20025;-79
2021/08/02 10:49:28;;;;;;;16.80;9.65;;;32.70;57.50;;;;;;5034595;28;20032;-78
2021/08/02 10:51:55;;;;;;;15.63;10.10;;;32.40;58.20;;;;;;5033337;28;20371;-80
2021/08/02 10:54:21;;;;;;;21.42;11.27;;;32.20;58.70;;;;;;5035314;28;20025;-80
2021/08/02 10:56:51;;;;;;;19.98;11.32;;;32.10;59.40;;;;;;5036410;28;20072;-78
2021/08/02 10:59:19;;;;;;;17.25;11.88;;;32.00;59.80;;;;;;5036393;28;20395;-79
2021/08/02 11:01:49;;;;;;;17.23;11.57;;;31.80;60.30;;;;;;5038323;28;20028;-78
2021/08/02 11:04:17;;;;;;;19.35;11.77;;;31.70;60.80;;;;;;5043511;28;20045;-79
2021/08/02 11:06:46;;;;;;;14.35;11.40;;;31.50;61.20;;;;;;5041611;28;20025;-79
2021/08/02 11:09:11;;;;;;;18.83;12.60;;;31.40;61.80;;;;;;5034787;28;20049;-79
2021/08/02 11:11:37;;;;;;;14.90;11.05;;;31.20;62.30;;;;;;5039172;28;20032;-78
2021/08/02 11:14:19;;;;;;;16.85;12.10;;;31.10;63.00;;;;;;5034967;28;20017;-78
2021/08/02 11:16:50;;;;;;;17.80;10.98;;;31.00;63.60;;;;;;5032882;28;20459;-78
2021/08/02 11:19:20;;;;;;;15.70;10.98;;;30.90;64.50;;;;;;5032874;28;20044;-78
2021/08/02 11:21:47;;;;;;;16.52;11.85;;;30.70;65.30;;;;;;5034207;28;20209;-76
2021/08/02 11:24:14;;;;;;;39.55;11.15;;;30.50;66.10;;;;;;5034329;28;20512;-74
2021/08/02 11:27:10;;;;;;;15.50;6.80;;;30.20;74.20;;;;;;5034280;28;20054;-81
2021/08/02 11:29:36;;;;;;;;;;;27.10;77.00;;;;;;5033740;28;20071;-76
2021/08/02 11:32:03;;;;;;;9.82;5.78;;;25.30;84.80;;;;;;5033913;28;20322;-73
2021/08/02 11:34:30;;;;;;;18.25;7.43;;;24.00;91.60;;;;;;5033747;28;20024;-82
2021/08/02 11:37:19;;;;;;;15.63;7.20;;;23.40;97.50;;;;;;5034063;28;20025;-80
2021/08/02 11:39:57;;;;;;;13.80;7.50;;;22.80;99.20;;;;;;5034142;28;20112;-77
2021/08/02 11:42:23;;;;;;;11.65;5.95;;;22.20;99.90;;;;;;5034429;28;20105;-79
2021/08/02 11:44:54;;;;;;;10.32;6.32;;;21.80;99.90;;;;;;5033663;28;20068;-80
2021/08/02 11:47:22;;;;;;;17.48;6.40;;;21.10;99.90;;;;;;5034063;28;20467;-79
2021/08/02 11:49:48;;;;;;;11.90;5.90;;;20.60;99.90;;;;;;5032867;28;20017;-75
2021/08/02 11:52:19;;;;;;;11.68;6.18;;;20.30;99.90;;;;;;5033643;28;20413;-75
2021/08/02 11:54:47;;;;;;;11.25;7.13;;;20.10;99.90;;;;;;5032250;28;20032;-75
2021/08/02 11:57:22;;;;;;;13.23;7.47;;;19.90;99.90;;;;;;5032202;28;20467;-74
2021/08/02 12:00:01;;;;;;;12.23;7.43;;;19.90;99.90;;;;;;5033570;28;20025;-74
2021/08/02 12:02:34;;;;;;;12.75;7.93;;;20.00;99.90;;;;;;5032391;28;20124;-72
2021/08/02 12:05:01;;;;;;;12.60;7.28;;;20.10;99.90;;;;;;5033472;28;20395;-72
2021/08/02 12:07:33;;;;;;;11.32;7.22;;;20.30;99.90;;;;;;5033548;28;20026;-71
2021/08/02 12:10:16;;;;;;;12.05;7.07;;;20.60;99.90;;;;;;5033715;28;20021;-71
2021/08/02 12:12:42;;;;;;;11.95;6.85;;;20.90;99.90;;;;;;5033624;28;20060;-71
2021/08/02 12:15:10;;;;;;;11.88;6.72;;;21.30;99.90;;;;;;5034491;28;20018;-71
2021/08/02 12:17:52;;;;;;;13.02;8.30;;;21.40;99.90;;;;;;5036155;28;20117;-71
2021/08/02 12:20:31;;;;;;;11.13;7.07;;;21.70;99.90;;;;;;5037532;28;20017;-71
2021/08/02 12:22:57;;;;;;;11.98;7.10;;;21.90;99.90;;;;;;5038316;28;20033;-73
2021/08/02 12:25:43;;;;;;;10.63;6.90;;;22.20;99.90;;;;;;5039395;28;20017;-71
2021/08/02 12:28:09;;;;;;;11.30;6.90;;;22.50;99.90;;;;;;5041278;28;20021;-72
2021/08/02 12:30:39;;;;;;;10.52;6.93;;;22.80;99.90;;;;;;5037544;28;20078;-72
2021/08/02 12:33:06;;;;;;;12.23;6.95;;;22.90;99.90;;;;;;5037540;28;20425;-71
2021/08/02 12:35:32;;;;;;;9.75;6.57;;;23.20;99.90;;;;;;5036265;28;20048;-71
2021/08/02 12:38:00;;;;;;;12.23;7.85;;;23.40;99.90;;;;;;5037158;28;20155;-71
2021/08/02 12:40:26;;;;;;;15.10;8.52;;;23.60;99.90;;;;;;5036159;28;20078;-71